Time;durP1;ratioP1;P1;durP2;ratioP2;P2;SDS_P1;SDS_P2;PMS_P1;PMS_P2;Temp;Humidity;BMP_temperature;BMP_pressure;BME280_temperature;BME280_humidity;BME280_pressure;Samples;Min_cycle;Max_cycle;Signal;HPM_P1;HPM_P2
2022/01/09 00:01:17;;;;;;;2.50;1.23;;;;;;;;;;4974784;28;20102;-62
2022/01/09 00:03:43;;;;;;;5.22;1.60;;;;;;;;;;4975722;28;20061;-62
2022/01/09 00:06:10;;;;;;;1.90;1.40;;;;;;;;;;4970317;28;20078;-63
2022/01/09 00:08:38;;;;;;;2.67;1.27;;;;;;;;;;4974199;28;20086;-62
2022/01/09 00:11:04;;;;;;;2.67;1.50;;;;;;;;;;4970463;28;20491;-62
2022/01/09 00:13:31;;;;;;;2.42;1.40;;;;;;;;;;4971277;28;20078;-62
2022/01/09 00:15:58;;;;;;;3.25;1.52;;;;;;;;;;4972678;28;20073;-61
2022/01/09 00:18:25;;;;;;;2.40;1.20;;;;;;;;;;4971917;28;20075;-62
2022/01/09 00:20:53;;;;;;;3.85;1.58;;;;;;;;;;4965032;28;20082;-60
2022/01/09 00:23:19;;;;;;;3.58;1.52;;;;;;;;;;4965328;28;20082;-63
2022/01/09 00:25:46;;;;;;;3.15;1.60;;;;;;;;;;4964695;28;20106;-62
2022/01/09 00:28:12;;;;;;;2.53;1.60;;;;;;;;;;4964943;28;20129;-63
2022/01/09 00:30:39;;;;;;;3.63;1.40;;;;;;;;;;4960919;28;20526;-62
2022/01/09 00:33:09;;;;;;;2.85;1.40;;;;;;;;;;4964829;28;20074;-62
2022/01/09 00:35:37;;;;;;;3.60;1.40;;;;;;;;;;4965965;28;20066;-62
2022/01/09 00:38:03;;;;;;;4.15;1.63;;;;;;;;;;4964051;28;20130;-62
2022/01/09 00:40:30;;;;;;;4.15;1.60;;;;;;;;;;4964054;28;20082;-62
2022/01/09 00:42:57;;;;;;;5.55;1.80;;;;;;;;;;4962316;28;20094;-63
2022/01/09 00:45:23;;;;;;;2.35;1.15;;;;;;;;;;4960475;28;20086;-62
2022/01/09 00:47:50;;;;;;;4.20;1.30;;;;;;;;;;4964166;28;20138;-63
2022/01/09 00:50:17;;;;;;;3.28;1.60;;;;;;;;;;4961428;28;20047;-63
2022/01/09 00:52:45;;;;;;;3.80;1.25;;;;;;;;;;4963384;28;20050;-63
2022/01/09 00:55:12;;;;;;;6.22;2.33;;;;;;;;;;4965601;28;20086;-64
2022/01/09 00:57:38;;;;;;;6.32;1.73;;;;;;;;;;4947339;28;20055;-62
2022/01/09 01:00:06;;;;;;;2.53;1.30;;;;;;;;;;4963165;28;20082;-63
2022/01/09 01:02:33;;;;;;;2.40;1.20;;;;;;;;;;4965832;28;20126;-63
2022/01/09 01:04:59;;;;;;;1.95;1.00;;;;;;;;;;4963497;28;20690;-62
2022/01/09 01:07:28;;;;;;;3.22;1.10;;;;;;;;;;4961528;28;20108;-63
2022/01/09 01:09:59;;;;;;;1.92;0.93;;;;;;;;;;4964854;28;20135;-63
2022/01/09 01:12:27;;;;;;;2.90;1.20;;;;;;;;;;4962063;28;20078;-63
2022/01/09 01:14:53;;;;;;;2.95;1.30;;;;;;;;;;4965298;28;20114;-64
2022/01/09 01:17:20;;;;;;;3.60;1.15;;;;;;;;;;4962555;28;20070;-64
2022/01/09 01:19:47;;;;;;;2.80;1.30;;;;;;;;;;4959757;28;20121;-64
2022/01/09 01:22:13;;;;;;;1.92;1.08;;;;;;;;;;4958172;28;20046;-64
2022/01/09 01:24:40;;;;;;;4.65;1.85;;;;;;;;;;4959412;28;20495;-64
2022/01/09 01:27:08;;;;;;;3.17;1.13;;;;;;;;;;4957193;28;20106;-64
2022/01/09 01:29:35;;;;;;;2.70;1.25;;;;;;;;;;4962478;28;20125;-63
2022/01/09 01:32:02;;;;;;;5.03;1.85;;;;;;;;;;4964181;28;20043;-63
2022/01/09 01:34:29;;;;;;;4.13;1.55;;;;;;;;;;4960287;28;20496;-64
2022/01/09 01:36:55;;;;;;;2.47;1.23;;;;;;;;;;4962197;28;20499;-62
2022/01/09 01:39:22;;;;;;;3.05;1.25;;;;;;;;;;4960945;28;20038;-63
2022/01/09 01:41:49;;;;;;;2.33;1.27;;;;;;;;;;4960418;28;20047;-64
2022/01/09 01:44:17;;;;;;;3.90;1.40;;;;;;;;;;4961430;28;20070;-64
2022/01/09 01:46:44;;;;;;;2.65;1.15;;;;;;;;;;4963104;28;20070;-63
2022/01/09 01:49:12;;;;;;;2.65;1.40;;;;;;;;;;4963860;28;20078;-63
2022/01/09 01:51:41;;;;;;;2.75;1.42;;;;;;;;;;4961158;28;20042;-64
2022/01/09 01:54:09;;;;;;;2.83;1.02;;;;;;;;;;4965503;28;20062;-64
2022/01/09 01:56:36;;;;;;;3.30;1.60;;;;;;;;;;4961525;28;20055;-63
2022/01/09 01:59:02;;;;;;;1.85;1.00;;;;;;;;;;4944026;28;20094;-63
2022/01/09 02:01:30;;;;;;;5.47;1.42;;;;;;;;;;4966446;28;20070;-63
2022/01/09 02:03:57;;;;;;;4.28;1.20;;;;;;;;;;4961270;28;20070;-63
2022/01/09 02:06:24;;;;;;;1.20;0.80;;;;;;;;;;4962013;28;20597;-63
2022/01/09 02:08:51;;;;;;;3.13;1.10;;;;;;;;;;4962555;28;20136;-62
2022/01/09 02:11:18;;;;;;;1.63;1.10;;;;;;;;;;4962499;28;20081;-64
2022/01/09 02:13:46;;;;;;;4.45;1.15;;;;;;;;;;4962815;28;20070;-64
2022/01/09 02:16:17;;;;;;;1.23;0.60;;;;;;;;;;4962357;28;20051;-63
2022/01/09 02:18:45;;;;;;;1.33;0.57;;;;;;;;;;4961693;28;20051;-63
2022/01/09 02:21:13;;;;;;;1.17;0.60;;;;;;;;;;4960001;28;20533;-62
2022/01/09 02:23:41;;;;;;;0.65;0.28;;;;;;;;;;4962232;28;20129;-63
2022/01/09 02:26:08;;;;;;;1.05;0.50;;;;;;;;;;4966557;28;20427;-64
2022/01/09 02:28:35;;;;;;;0.93;0.47;;;;;;;;;;4966590;28;20105;-63
2022/01/09 02:31:01;;;;;;;0.88;0.40;;;;;;;;;;4964293;28;20091;-64
2022/01/09 02:33:28;;;;;;;0.93;0.47;;;;;;;;;;4962366;28;20046;-63
2022/01/09 02:35:56;;;;;;;1.90;0.40;;;;;;;;;;4961322;28;20795;-63
2022/01/09 02:38:24;;;;;;;0.73;0.60;;;;;;;;;;4962525;28;20047;-62
2022/01/09 02:40:51;;;;;;;0.63;0.30;;;;;;;;;;4963987;28;20063;-63
2022/01/09 02:43:18;;;;;;;0.40;0.20;;;;;;;;;;4962417;28;20097;-64
2022/01/09 02:45:48;;;;;;;0.63;0.30;;;;;;;;;;4962496;28;20129;-64
2022/01/09 02:48:15;;;;;;;0.60;0.30;;;;;;;;;;4962540;28;20143;-64
2022/01/09 02:50:52;;;;;;;0.80;0.20;;;;;;;;;;4960609;28;20055;-63
2022/01/09 02:53:20;;;;;;;0.85;0.40;;;;;;;;;;4963451;28;20161;-63
2022/01/09 02:55:49;;;;;;;0.77;0.28;;;;;;;;;;4947436;28;20397;-62
2022/01/09 02:58:16;;;;;;;0.52;0.30;;;;;;;;;;4961334;28;20491;-64
2022/01/09 03:00:44;;;;;;;0.63;0.20;;;;;;;;;;4963979;28;20126;-63
2022/01/09 03:03:11;;;;;;;0.35;0.22;;;;;;;;;;4960446;28;20059;-64
2022/01/09 03:05:38;;;;;;;0.65;0.30;;;;;;;;;;4958519;28;20470;-64
2022/01/09 03:08:05;;;;;;;0.43;0.30;;;;;;;;;;4961748;28;20229;-64
2022/01/09 03:10:32;;;;;;;0.98;0.20;;;;;;;;;;4964410;28;20054;-60
2022/01/09 03:13:00;;;;;;;0.65;0.28;;;;;;;;;;4964446;28;20042;-64
2022/01/09 03:15:27;;;;;;;0.68;0.30;;;;;;;;;;4966457;28;20047;-63
2022/01/09 03:17:54;;;;;;;0.55;0.30;;;;;;;;;;4968730;28;20170;-63
2022/01/09 03:20:22;;;;;;;0.75;0.30;;;;;;;;;;4962827;28;20075;-63
2022/01/09 03:22:48;;;;;;;0.28;0.20;;;;;;;;;;4962244;28;20118;-63
2022/01/09 03:25:16;;;;;;;1.15;0.28;;;;;;;;;;4965065;28;20047;-63
2022/01/09 03:27:46;;;;;;;0.43;0.17;;;;;;;;;;4964409;28;20495;-63
2022/01/09 03:30:14;;;;;;;1.08;0.68;;;;;;;;;;4966238;28;20270;-63
2022/01/09 03:32:42;;;;;;;0.80;0.28;;;;;;;;;;4963273;28;20071;-63
2022/01/09 03:35:11;;;;;;;1.08;0.30;;;;;;;;;;4962549;28;20409;-63
2022/01/09 03:37:37;;;;;;;0.90;0.30;;;;;;;;;;4963715;28;20534;-63
2022/01/09 03:40:05;;;;;;;0.70;0.30;;;;;;;;;;4967785;28;20109;-62
2022/01/09 03:42:31;;;;;;;0.20;0.20;;;;;;;;;;4962123;28;20071;-62
2022/01/09 03:44:58;;;;;;;0.55;0.20;;;;;;;;;;4967431;28;20074;-63
2022/01/09 03:47:26;;;;;;;0.77;0.35;;;;;;;;;;4964228;28;20523;-63
2022/01/09 03:49:53;;;;;;;0.80;0.45;;;;;;;;;;4949881;28;20141;-62
2022/01/09 03:52:19;;;;;;;0.73;0.40;;;;;;;;;;4965617;28;20091;-63
2022/01/09 03:54:46;;;;;;;0.85;0.50;;;;;;;;;;4966399;28;20138;-63
2022/01/09 03:57:12;;;;;;;1.35;0.50;;;;;;;;;;4961174;28;20102;-63
2022/01/09 03:59:39;;;;;;;1.13;0.60;;;;;;;;;;4969008;28;20074;-62
2022/01/09 04:02:05;;;;;;;0.38;0.30;;;;;;;;;;4966741;28;20074;-63
2022/01/09 04:04:33;;;;;;;2.30;0.50;;;;;;;;;;4963587;28;20097;-62
2022/01/09 04:07:00;;;;;;;0.88;0.50;;;;;;;;;;4964807;28;20078;-62
2022/01/09 04:09:38;;;;;;;2.05;0.70;;;;;;;;;;4967455;28;20090;-58
2022/01/09 04:12:14;;;;;;;0.63;0.38;;;;;;;;;;4966829;28;20487;-63
2022/01/09 04:14:40;;;;;;;1.00;0.60;;;;;;;;;;4964713;28;20534;-61
2022/01/09 04:17:11;;;;;;;0.77;0.43;;;;;;;;;;4967995;28;20066;-62
2022/01/09 04:19:42;;;;;;;2.00;0.52;;;;;;;;;;4965953;28;20114;-62
2022/01/09 04:22:09;;;;;;;1.42;0.50;;;;;;;;;;4964929;28;20122;-60
2022/01/09 04:24:35;;;;;;;1.15;0.47;;;;;;;;;;4962520;28;20070;-62
2022/01/09 04:27:03;;;;;;;1.50;0.82;;;;;;;;;;4964604;28;20067;-61
2022/01/09 04:29:29;;;;;;;1.10;0.70;;;;;;;;;;4963894;28;20054;-59
2022/01/09 04:31:56;;;;;;;0.95;0.57;;;;;;;;;;4969462;28;20078;-62
2022/01/09 04:34:22;;;;;;;1.00;0.50;;;;;;;;;;4965740;28;20154;-62
2022/01/09 04:36:51;;;;;;;2.00;0.60;;;;;;;;;;4965266;28;20083;-62
2022/01/09 04:39:17;;;;;;;0.52;0.47;;;;;;;;;;4968429;28;20039;-61
2022/01/09 04:41:44;;;;;;;1.77;0.85;;;;;;;;;;4963926;28;20090;-62
2022/01/09 04:44:10;;;;;;;1.10;0.40;;;;;;;;;;4942115;28;20074;-62
2022/01/09 04:46:42;;;;;;;1.63;0.60;;;;;;;;;;4966313;28;20091;-61
2022/01/09 04:49:09;;;;;;;0.90;0.60;;;;;;;;;;4964259;28;20035;-61
2022/01/09 04:51:35;;;;;;;1.00;0.60;;;;;;;;;;4967400;28;20699;-62
2022/01/09 04:54:04;;;;;;;1.80;0.77;;;;;;;;;;4969592;28;20407;-63
2022/01/09 04:56:31;;;;;;;4.85;0.70;;;;;;;;;;4965243;28;20057;-62
2022/01/09 04:58:57;;;;;;;0.95;0.57;;;;;;;;;;4966112;28;20562;-63
2022/01/09 05:01:24;;;;;;;2.20;0.80;;;;;;;;;;4966745;28;20101;-63
2022/01/09 05:03:50;;;;;;;1.45;0.52;;;;;;;;;;4969588;28;20423;-62
2022/01/09 05:06:18;;;;;;;1.10;0.65;;;;;;;;;;4964519;28;20079;-62
2022/01/09 05:08:44;;;;;;;0.88;0.50;;;;;;;;;;4964009;28;20130;-62
2022/01/09 05:11:15;;;;;;;1.08;0.52;;;;;;;;;;4968296;28;20075;-62
2022/01/09 05:13:41;;;;;;;0.88;0.57;;;;;;;;;;4970547;28;20109;-61
2022/01/09 05:16:08;;;;;;;0.82;0.30;;;;;;;;;;4961392;28;20165;-62
2022/01/09 05:18:50;;;;;;;0.75;0.50;;;;;;;;;;4963532;28;20047;-63
2022/01/09 05:21:16;;;;;;;0.63;0.40;;;;;;;;;;4966649;28;20535;-63
2022/01/09 05:23:43;;;;;;;0.47;0.30;;;;;;;;;;4969848;28;20157;-63
2022/01/09 05:26:11;;;;;;;0.73;0.35;;;;;;;;;;4968668;28;20070;-62
2022/01/09 05:28:38;;;;;;;1.27;0.30;;;;;;;;;;4963711;28;20870;-62
2022/01/09 05:31:04;;;;;;;0.30;0.30;;;;;;;;;;4962144;28;20039;-62
2022/01/09 05:33:31;;;;;;;1.27;0.40;;;;;;;;;;4967156;28;20074;-62
2022/01/09 05:35:58;;;;;;;0.55;0.20;;;;;;;;;;4967140;28;20541;-62
2022/01/09 05:38:24;;;;;;;0.68;0.28;;;;;;;;;;4965337;28;20495;-62
2022/01/09 05:40:51;;;;;;;0.80;0.50;;;;;;;;;;4966833;28;20075;-61
2022/01/09 05:43:19;;;;;;;0.43;0.20;;;;;;;;;;4962692;28;20074;-63
2022/01/09 05:45:45;;;;;;;0.28;0.15;;;;;;;;;;4967147;28;20057;-63
2022/01/09 05:48:12;;;;;;;0.38;0.20;;;;;;;;;;4967147;28;20106;-63
2022/01/09 05:50:38;;;;;;;1.88;0.30;;;;;;;;;;4965797;28;20078;-63
2022/01/09 05:53:05;;;;;;;0.38;0.20;;;;;;;;;;4962406;28;20503;-63
2022/01/09 05:55:32;;;;;;;0.17;0.10;;;;;;;;;;4967233;28;20446;-62
2022/01/09 05:57:58;;;;;;;0.10;0.10;;;;;;;;;;4965291;28;20685;-61
2022/01/09 06:00:26;;;;;;;0.10;0.10;;;;;;;;;;4964459;28;20118;-62
2022/01/09 06:02:53;;;;;;;0.10;0.10;;;;;;;;;;4966853;28;20090;-62
2022/01/09 06:05:19;;;;;;;0.47;0.10;;;;;;;;;;4962188;28;20074;-62
2022/01/09 06:07:47;;;;;;;2.25;0.10;;;;;;;;;;4961629;28;20038;-61
2022/01/09 06:10:13;;;;;;;2.55;0.22;;;;;;;;;;4969376;28;20066;-62
2022/01/09 06:12:40;;;;;;;0.05;0.00;;;;;;;;;;4961169;28;20126;-62
2022/01/09 06:15:08;;;;;;;0.28;0.20;;;;;;;;;;4965321;28;20074;-62
2022/01/09 06:17:46;;;;;;;0.00;0.00;;;;;;;;;;4962567;28;20105;-62
2022/01/09 06:20:14;;;;;;;0.52;0.10;;;;;;;;;;4966339;28;20129;-61
2022/01/09 06:22:42;;;;;;;0.00;0.00;;;;;;;;;;4965492;28;20082;-62
2022/01/09 06:25:10;;;;;;;0.52;0.10;;;;;;;;;;4966182;28;20443;-62
2022/01/09 06:27:36;;;;;;;0.20;0.05;;;;;;;;;;4964713;28;20083;-62
2022/01/09 06:30:04;;;;;;;0.00;0.00;;;;;;;;;;4965511;28;20082;-62
2022/01/09 06:32:34;;;;;;;0.15;0.10;;;;;;;;;;4964063;28;20156;-63
2022/01/09 06:35:02;;;;;;;0.17;0.00;;;;;;;;;;4962330;28;20121;-62
2022/01/09 06:37:29;;;;;;;0.05;0.00;;;;;;;;;;4963717;28;20528;-63
2022/01/09 06:39:55;;;;;;;0.00;0.00;;;;;;;;;;4967329;28;20464;-63
2022/01/09 06:42:22;;;;;;;0.22;0.10;;;;;;;;;;4964884;28;20081;-63
2022/01/09 06:44:48;;;;;;;0.20;0.03;;;;;;;;;;4969232;28;20082;-61
2022/01/09 06:47:15;;;;;;;0.03;0.03;;;;;;;;;;4967716;28;20066;-62
2022/01/09 06:49:41;;;;;;;0.10;0.10;;;;;;;;;;4967907;28;20070;-62
2022/01/09 06:52:09;;;;;;;0.00;0.00;;;;;;;;;;4965160;28;20089;-63
2022/01/09 06:54:36;;;;;;;0.20;0.05;;;;;;;;;;4972547;28;20082;-59
2022/01/09 06:57:03;;;;;;;0.17;0.10;;;;;;;;;;4966223;28;20526;-61
2022/01/09 06:59:29;;;;;;;0.00;0.00;;;;;;;;;;4945268;28;20097;-61
2022/01/09 07:01:56;;;;;;;0.10;0.10;;;;;;;;;;4971064;28;20070;-61
2022/01/09 07:04:22;;;;;;;0.28;0.20;;;;;;;;;;4966595;28;20075;-62
2022/01/09 07:06:49;;;;;;;0.65;0.20;;;;;;;;;;4966436;28;20089;-63
2022/01/09 07:09:17;;;;;;;0.00;0.00;;;;;;;;;;4969421;28;20182;-62
2022/01/09 07:11:43;;;;;;;0.20;0.10;;;;;;;;;;4968856;28;20075;-63
2022/01/09 07:14:10;;;;;;;0.03;0.03;;;;;;;;;;4966499;28;20452;-62
2022/01/09 07:16:36;;;;;;;1.23;0.25;;;;;;;;;;4968028;28;20090;-62
2022/01/09 07:19:03;;;;;;;0.43;0.25;;;;;;;;;;4964490;28;20106;-61
2022/01/09 07:21:30;;;;;;;0.45;0.10;;;;;;;;;;4963891;28;20491;-63
2022/01/09 07:23:56;;;;;;;1.88;0.95;;;;;;;;;;4971176;28;20496;-62
2022/01/09 07:26:24;;;;;;;1.08;0.45;;;;;;;;;;4969871;28;20081;-63
2022/01/09 07:28:51;;;;;;;0.50;0.40;;;;;;;;;;4968508;28;20186;-63
2022/01/09 07:31:17;;;;;;;2.95;0.70;;;;;;;;;;4962186;28;20042;-63
2022/01/09 07:33:44;;;;;;;0.65;0.30;;;;;;;;;;4963957;28;20075;-63
2022/01/09 07:36:10;;;;;;;0.73;0.38;;;;;;;;;;4963024;28;20066;-63
2022/01/09 07:38:37;;;;;;;0.35;0.30;;;;;;;;;;4968381;28;20125;-60
2022/01/09 07:41:03;;;;;;;0.63;0.22;;;;;;;;;;4968154;28;20062;-62
2022/01/09 07:43:31;;;;;;;0.55;0.28;;;;;;;;;;4966897;28;20512;-63
2022/01/09 07:45:58;;;;;;;0.17;0.17;;;;;;;;;;4968008;28;20071;-62
2022/01/09 07:48:24;;;;;;;0.20;0.20;;;;;;;;;;4967118;28;20067;-62
2022/01/09 07:50:51;;;;;;;4.03;0.40;;;;;;;;;;4969620;28;20090;-62
2022/01/09 07:53:23;;;;;;;0.20;0.20;;;;;;;;;;4966296;28;20047;-61
2022/01/09 07:55:49;;;;;;;0.50;0.28;;;;;;;;;;4968287;28;20070;-61
2022/01/09 07:58:16;;;;;;;0.57;0.30;;;;;;;;;;4963004;28;20083;-61
2022/01/09 08:00:44;;;;;;;2.03;0.60;;;;;;;;;;4963489;28;20039;-62
2022/01/09 08:03:11;;;;;;;0.55;0.45;;;;;;;;;;4968013;28;20586;-63
2022/01/09 08:05:37;;;;;;;0.57;0.28;;;;;;;;;;4966113;28;20526;-63
2022/01/09 08:08:04;;;;;;;0.60;0.30;;;;;;;;;;4965874;28;20117;-63
2022/01/09 08:10:31;;;;;;;0.50;0.30;;;;;;;;;;4968587;28;20078;-64
2022/01/09 08:12:59;;;;;;;0.73;0.40;;;;;;;;;;4969086;28;20074;-63
2022/01/09 08:15:26;;;;;;;0.75;0.32;;;;;;;;;;4969090;28;20046;-62
2022/01/09 08:17:54;;;;;;;0.95;0.40;;;;;;;;;;4968421;28;20043;-62
2022/01/09 08:20:21;;;;;;;0.38;0.30;;;;;;;;;;4966219;28;20043;-63
2022/01/09 08:22:48;;;;;;;0.55;0.30;;;;;;;;;;4965415;28;20043;-61
2022/01/09 08:25:17;;;;;;;0.43;0.40;;;;;;;;;;4964364;28;20094;-62
2022/01/09 08:27:44;;;;;;;1.02;0.65;;;;;;;;;;4967627;28;20082;-63
2022/01/09 08:30:12;;;;;;;1.42;0.75;;;;;;;;;;4965011;28;20082;-63
2022/01/09 08:32:39;;;;;;;0.65;0.55;;;;;;;;;;4966953;28;20195;-62
2022/01/09 08:35:09;;;;;;;1.45;0.30;;;;;;;;;;4965039;28;20051;-63
2022/01/09 08:37:36;;;;;;;1.10;0.47;;;;;;;;;;4962752;28;20165;-63
2022/01/09 08:40:03;;;;;;;1.17;0.40;;;;;;;;;;4966194;28;20035;-63
2022/01/09 08:42:30;;;;;;;0.40;0.17;;;;;;;;;;4967055;28;20070;-63
2022/01/09 08:44:56;;;;;;;0.75;0.30;;;;;;;;;;4966124;28;20142;-63
2022/01/09 08:47:24;;;;;;;0.35;0.20;;;;;;;;;;4967365;28;20842;-64
2022/01/09 08:49:50;;;;;;;0.35;0.30;;;;;;;;;;4967648;28;20524;-63
2022/01/09 08:52:18;;;;;;;0.68;0.30;;;;;;;;;;4965188;28;20078;-63
2022/01/09 08:54:45;;;;;;;0.63;0.38;;;;;;;;;;4970584;28;20078;-63
2022/01/09 08:57:11;;;;;;;2.00;0.60;;;;;;;;;;4966935;28;20075;-63
2022/01/09 08:59:38;;;;;;;0.65;0.52;;;;;;;;;;4966427;28;20499;-61
2022/01/09 09:02:05;;;;;;;1.08;0.55;;;;;;;;;;4965876;28;20135;-63
2022/01/09 09:04:31;;;;;;;0.52;0.38;;;;;;;;;;4964342;28;20085;-63
2022/01/09 09:06:58;;;;;;;0.40;0.40;;;;;;;;;;4963335;28;20039;-62
2022/01/09 09:09:26;;;;;;;1.70;0.30;;;;;;;;;;4964990;28;20078;-63
2022/01/09 09:11:52;;;;;;;0.95;0.70;;;;;;;;;;4965601;28;20078;-63
2022/01/09 09:14:20;;;;;;;1.20;0.57;;;;;;;;;;4969286;28;20055;-62
2022/01/09 09:16:47;;;;;;;1.52;0.80;;;;;;;;;;4966814;28;20045;-63
2022/01/09 09:19:13;;;;;;;0.80;0.32;;;;;;;;;;4967587;28;20637;-62
2022/01/09 09:21:40;;;;;;;1.27;0.60;;;;;;;;;;4967495;28;20043;-63
2022/01/09 09:24:07;;;;;;;2.05;0.60;;;;;;;;;;4965269;28;20046;-63
2022/01/09 09:26:35;;;;;;;2.20;0.50;;;;;;;;;;4965600;28;20043;-63
2022/01/09 09:29:01;;;;;;;0.73;0.40;;;;;;;;;;4965231;28;20086;-64
2022/01/09 09:31:28;;;;;;;1.70;0.50;;;;;;;;;;4964297;28;20070;-64
2022/01/09 09:33:54;;;;;;;1.85;0.80;;;;;;;;;;4963227;28;20043;-63
2022/01/09 09:36:23;;;;;;;1.85;0.75;;;;;;;;;;4961749;28;20070;-63
2022/01/09 09:38:50;;;;;;;1.52;0.68;;;;;;;;;;4965629;28;20057;-63
2022/01/09 09:41:17;;;;;;;0.70;0.40;;;;;;;;;;4964717;28;20098;-63
2022/01/09 09:43:44;;;;;;;1.45;0.65;;;;;;;;;;4962517;28;20071;-63
2022/01/09 09:46:11;;;;;;;1.02;0.55;;;;;;;;;;4963553;28;20085;-63
2022/01/09 09:48:39;;;;;;;1.27;0.50;;;;;;;;;;4966910;28;20066;-63
2022/01/09 09:51:05;;;;;;;2.78;0.73;;;;;;;;;;4966091;28;20137;-61
2022/01/09 09:53:32;;;;;;;3.03;0.90;;;;;;;;;;4964961;28;20070;-63
2022/01/09 09:55:58;;;;;;;1.80;0.55;;;;;;;;;;4962240;28;20066;-63
2022/01/09 09:58:27;;;;;;;1.17;0.52;;;;;;;;;;4966667;28;20863;-63
2022/01/09 10:00:56;;;;;;;1.90;0.80;;;;;;;;;;4961915;28;20082;-63
2022/01/09 10:03:29;;;;;;;3.05;0.52;;;;;;;;;;4964075;28;20506;-62
2022/01/09 10:05:56;;;;;;;3.70;1.30;;;;;;;;;;4963225;28;20066;-63
2022/01/09 10:08:23;;;;;;;1.27;0.50;;;;;;;;;;4965151;28;20051;-62
2022/01/09 10:10:49;;;;;;;3.10;0.82;;;;;;;;;;4963919;28;20074;-63
2022/01/09 10:13:18;;;;;;;2.15;0.68;;;;;;;;;;4962797;28;20074;-63
2022/01/09 10:15:47;;;;;;;3.15;1.00;;;;;;;;;;4965530;28;20058;-63
2022/01/09 10:18:15;;;;;;;3.78;1.92;;;;;;;;;;4967593;28;20063;-62
2022/01/09 10:20:42;;;;;;;2.58;0.98;;;;;;;;;;4961588;28;20498;-63
2022/01/09 10:23:08;;;;;;;3.05;1.10;;;;;;;;;;4961619;28;20070;-63
2022/01/09 10:25:36;;;;;;;2.50;0.77;;;;;;;;;;4968050;28;20062;-63
2022/01/09 10:28:08;;;;;;;2.20;0.68;;;;;;;;;;4963807;28;20090;-63
2022/01/09 10:30:38;;;;;;;1.27;0.70;;;;;;;;;;4967200;28;20089;-63
2022/01/09 10:33:08;;;;;;;1.85;1.27;;;;;;;;;;4946479;28;20419;-62
2022/01/09 10:35:36;;;;;;;2.63;0.88;;;;;;;;;;4963509;28;20109;-62
2022/01/09 10:38:11;;;;;;;1.63;0.93;;;;;;;;;;4961722;28;20075;-62
2022/01/09 10:40:38;;;;;;;1.63;0.60;;;;;;;;;;4965596;28;20082;-62
2022/01/09 10:43:07;;;;;;;2.17;0.85;;;;;;;;;;4967772;28;20078;-62
2022/01/09 10:45:34;;;;;;;2.55;0.80;;;;;;;;;;4963995;28;20074;-62
2022/01/09 10:48:06;;;;;;;1.70;0.80;;;;;;;;;;4963225;28;20071;-62
2022/01/09 10:50:37;;;;;;;2.95;1.15;;;;;;;;;;4965062;28;20043;-63
2022/01/09 10:53:25;;;;;;;2.13;0.90;;;;;;;;;;4960528;28;20074;-63
2022/01/09 10:56:06;;;;;;;3.92;1.10;;;;;;;;;;4962106;28;20047;-62
2022/01/09 10:58:35;;;;;;;4.55;2.05;;;;;;;;;;4958352;28;20102;-61
2022/01/09 11:01:10;;;;;;;2.45;1.00;;;;;;;;;;4964430;28;20442;-61
2022/01/09 11:03:36;;;;;;;4.43;1.65;;;;;;;;;;4966184;28;20066;-62
2022/01/09 11:06:05;;;;;;;5.07;0.90;;;;;;;;;;4964519;28;20135;-62
2022/01/09 11:08:32;;;;;;;3.63;0.82;;;;;;;;;;4966586;28;20074;-62
2022/01/09 11:10:59;;;;;;;4.05;0.82;;;;;;;;;;4967572;28;20104;-61
2022/01/09 11:13:26;;;;;;;5.88;1.45;;;;;;;;;;4965237;28;20055;-61
2022/01/09 11:18:39;;;;;;;2.95;1.10;;;;;;;;;;4965455;28;20066;-62
2022/01/09 11:21:07;;;;;;;1.45;0.73;;;;;;;;;;4959155;28;20063;-62
2022/01/09 11:23:40;;;;;;;2.35;0.90;;;;;;;;;;4964738;28;20063;-62
2022/01/09 11:26:08;;;;;;;4.93;1.00;;;;;;;;;;4961835;28;20066;-62
2022/01/09 11:28:38;;;;;;;4.18;0.70;;;;;;;;;;4963467;28;20074;-62
2022/01/09 11:31:12;;;;;;;2.17;0.80;;;;;;;;;;4968612;28;20126;-62
2022/01/09 11:33:51;;;;;;;1.55;0.52;;;;;;;;;;4966437;28;20039;-62
2022/01/09 11:36:24;;;;;;;2.92;0.80;;;;;;;;;;4966234;28;20074;-62
2022/01/09 11:38:58;;;;;;;4.35;1.05;;;;;;;;;;4965035;28;20078;-61
2022/01/09 11:41:26;;;;;;;2.10;0.65;;;;;;;;;;4968924;28;20066;-62
2022/01/09 11:43:57;;;;;;;4.22;0.98;;;;;;;;;;4968897;28;20149;-61
2022/01/09 11:46:25;;;;;;;5.22;1.10;;;;;;;;;;4966532;28;20066;-60
2022/01/09 11:49:08;;;;;;;3.55;0.88;;;;;;;;;;4965275;28;20055;-61
2022/01/09 11:51:36;;;;;;;0.95;0.50;;;;;;;;;;4967182;28;20097;-61
2022/01/09 11:54:12;;;;;;;3.85;0.70;;;;;;;;;;4969643;28;20102;-60
2022/01/09 11:56:55;;;;;;;4.30;1.10;;;;;;;;;;4968036;28;20043;-61
2022/01/09 11:59:25;;;;;;;4.22;0.93;;;;;;;;;;4967749;28;20479;-61
2022/01/09 12:01:55;;;;;;;4.05;0.95;;;;;;;;;;4967967;28;20050;-60
2022/01/09 12:04:54;;;;;;;7.32;1.42;;;;;;;;;;4968560;28;20079;-61
2022/01/09 12:08:03;;;;;;;3.35;1.17;;;;;;;;;;4966589;28;20054;-61
2022/01/09 12:10:47;;;;;;;2.83;0.80;;;;;;;;;;4966032;28;20054;-63
2022/01/09 12:13:42;;;;;;;3.97;0.98;;;;;;;;;;4965509;28;20129;-61
2022/01/09 12:16:12;;;;;;;3.70;1.00;;;;;;;;;;4965251;28;20105;-64
2022/01/09 12:18:44;;;;;;;3.97;1.23;;;;;;;;;;4961649;28;20133;-61
2022/01/09 12:21:48;;;;;;;5.65;1.13;;;;;;;;;;4964887;28;20079;-59
2022/01/09 12:24:37;;;;;;;6.00;1.90;;;;;;;;;;4962831;28;20071;-61
2022/01/09 12:27:38;;;;;;;5.75;1.60;;;;;;;;;;4964456;28;20141;-60
2022/01/09 12:30:07;;;;;;;4.90;0.77;;;;;;;;;;4966362;28;20146;-61
2022/01/09 12:32:41;;;;;;;5.20;1.77;;;;;;;;;;4964646;28;20078;-61
2022/01/09 12:35:16;;;;;;;6.57;1.05;;;;;;;;;;4965428;28;20157;-61
2022/01/09 12:37:47;;;;;;;6.20;1.33;;;;;;;;;;4965962;28;20133;-61
2022/01/09 12:40:15;;;;;;;2.40;1.10;;;;;;;;;;4967245;28;20373;-61
2022/01/09 12:42:46;;;;;;;3.40;1.30;;;;;;;;;;4969875;28;20081;-61
2022/01/09 12:45:18;;;;;;;4.30;1.17;;;;;;;;;;4964994;28;20057;-60
2022/01/09 12:47:45;;;;;;;4.82;1.25;;;;;;;;;;4965214;28;20141;-60
2022/01/09 12:50:12;;;;;;;3.75;0.80;;;;;;;;;;4967848;28;20621;-60
2022/01/09 12:52:38;;;;;;;2.65;0.93;;;;;;;;;;4968724;28;20082;-60
2022/01/09 12:55:06;;;;;;;3.67;0.90;;;;;;;;;;4965765;28;20067;-59
2022/01/09 12:57:51;;;;;;;2.50;0.93;;;;;;;;;;4966598;28;20152;-60
2022/01/09 13:00:25;;;;;;;1.65;0.60;;;;;;;;;;4965851;28;20070;-61
2022/01/09 13:02:53;;;;;;;4.00;0.85;;;;;;;;;;4967234;28;20113;-60
2022/01/09 13:05:22;;;;;;;3.60;1.63;;;;;;;;;;4967208;28;20075;-61
2022/01/09 13:07:55;;;;;;;3.83;1.13;;;;;;;;;;4964969;28;20464;-61
2022/01/09 13:10:28;;;;;;;2.50;0.77;;;;;;;;;;4967101;28;20491;-58
2022/01/09 13:13:02;;;;;;;3.63;1.10;;;;;;;;;;4968015;28;20070;-59
2022/01/09 13:15:34;;;;;;;2.85;1.27;;;;;;;;;;4948940;28;20150;-61
2022/01/09 13:18:01;;;;;;;3.50;0.70;;;;;;;;;;4966291;28;20222;-60
2022/01/09 13:20:27;;;;;;;2.90;0.70;;;;;;;;;;4965746;28;20043;-60
2022/01/09 13:23:03;;;;;;;2.13;0.88;;;;;;;;;;4967564;28;20097;-61
2022/01/09 13:25:29;;;;;;;1.10;0.80;;;;;;;;;;4966296;28;20101;-61
2022/01/09 13:27:56;;;;;;;3.35;1.00;;;;;;;;;;4965158;28;20125;-58
2022/01/09 13:30:22;;;;;;;2.90;1.13;;;;;;;;;;4966343;28;20079;-61
2022/01/09 13:32:50;;;;;;;2.65;1.00;;;;;;;;;;4966839;28;20082;-60
2022/01/09 13:35:17;;;;;;;1.80;0.90;;;;;;;;;;4966906;28;20693;-61
2022/01/09 13:37:44;;;;;;;5.55;2.08;;;;;;;;;;4965997;28;20075;-60
2022/01/09 13:40:10;;;;;;;6.72;1.00;;;;;;;;;;4962348;28;20113;-61
2022/01/09 13:42:37;;;;;;;6.97;1.10;;;;;;;;;;4964668;28;20126;-61
2022/01/09 13:45:08;;;;;;;3.58;1.40;;;;;;;;;;4964362;28;20116;-61
2022/01/09 13:47:42;;;;;;;6.70;1.92;;;;;;;;;;4962638;28;20065;-61
2022/01/09 13:50:13;;;;;;;4.15;1.40;;;;;;;;;;4964474;28;20146;-61
2022/01/09 13:52:39;;;;;;;4.85;1.48;;;;;;;;;;4960988;28;20487;-61
2022/01/09 13:55:09;;;;;;;3.42;1.08;;;;;;;;;;4966713;28;20101;-61
2022/01/09 13:57:47;;;;;;;5.28;1.02;;;;;;;;;;4961982;28;20047;-61
2022/01/09 14:00:14;;;;;;;4.22;1.52;;;;;;;;;;4959923;28;20042;-60
2022/01/09 14:02:42;;;;;;;4.85;1.40;;;;;;;;;;4964511;28;20039;-61
2022/01/09 14:05:15;;;;;;;5.35;1.70;;;;;;;;;;4966659;28;20137;-61
2022/01/09 14:07:45;;;;;;;5.05;1.85;;;;;;;;;;4964851;28;20085;-61
2022/01/09 14:10:12;;;;;;;6.05;1.20;;;;;;;;;;4965666;28;20132;-61
2022/01/09 14:12:38;;;;;;;7.50;1.77;;;;;;;;;;4959040;28;20146;-59
2022/01/09 14:15:13;;;;;;;5.72;1.15;;;;;;;;;;4961258;28;20074;-60
2022/01/09 14:17:44;;;;;;;2.88;1.17;;;;;;;;;;4961852;28;20074;-60
2022/01/09 14:20:17;;;;;;;4.35;1.02;;;;;;;;;;4962710;28;20078;-59
2022/01/09 14:22:47;;;;;;;2.50;1.10;;;;;;;;;;4965405;28;20130;-61
2022/01/09 14:25:15;;;;;;;5.25;1.65;;;;;;;;;;4960201;28;20112;-61
2022/01/09 14:27:47;;;;;;;6.93;1.90;;;;;;;;;;4961563;28;20125;-60
2022/01/09 14:30:26;;;;;;;5.13;2.00;;;;;;;;;;4966677;28;20058;-60
2022/01/09 14:33:12;;;;;;;7.22;2.00;;;;;;;;;;4966413;28;20050;-60
2022/01/09 14:35:42;;;;;;;4.67;1.10;;;;;;;;;;4965896;28;20086;-61
2022/01/09 14:38:10;;;;;;;2.40;1.00;;;;;;;;;;4963810;28;20401;-61
2022/01/09 14:40:37;;;;;;;4.90;1.45;;;;;;;;;;4967106;28;20124;-61
2022/01/09 14:43:05;;;;;;;6.03;1.30;;;;;;;;;;4966303;28;20054;-61
2022/01/09 14:45:31;;;;;;;3.35;1.10;;;;;;;;;;4965505;28;20138;-61
2022/01/09 14:47:58;;;;;;;3.85;1.67;;;;;;;;;;4964407;28;20046;-61
2022/01/09 14:50:24;;;;;;;6.80;2.10;;;;;;;;;;4966799;28;20141;-60
2022/01/09 14:52:52;;;;;;;4.88;2.28;;;;;;;;;;4964766;28;20687;-58
2022/01/09 14:55:19;;;;;;;7.15;3.38;;;;;;;;;;4962460;28;20145;-61